Imperial Municipal Airport


Codes: KIML/IML
Name: Imperial Municipal Airport
City: Imperial
Country: United States
Elevation: 3275 ft.

Photos at Imperial Municipal Airport


   Photos courtesy of SpottingLog. You can add your own sightings and photos by signing up for a free trial today.



No photos found.

Weather at Imperial Municipal Airport


Time (UTC)DescriptionTempratureWindCloud coverageVisibilityPressureHumidity
15-Apr-2024 15:00Clear Sky18°C18 mph, SE0%10000m1001hPa37%
15-Apr-2024 18:00Clear Sky21°C25 mph, SE0%10000m999hPa29%
15-Apr-2024 21:00Clear Sky25°C27 mph, SE1%10000m994hPa18%
16-Apr-2024 00:00Few Clouds27°C11 mph, S18%10000m989hPa13%
16-Apr-2024 03:00Overcast Clouds20°C11 mph, W100%10000m993hPa17%
16-Apr-2024 06:00Overcast Clouds14°C9 mph, NW100%10000m994hPa43%
16-Apr-2024 09:00Broken Clouds13°C13 mph, W79%10000m993hPa46%
16-Apr-2024 12:00Overcast Clouds12°C16 mph, W90%10000m993hPa62%
16-Apr-2024 15:00Overcast Clouds16°C27 mph, NW100%10000m993hPa64%
16-Apr-2024 18:00Overcast Clouds15°C31 mph, NW99%10000m995hPa65%
16-Apr-2024 21:00Light Rain12°C34 mph, NW100%10000m1000hPa73%
17-Apr-2024 00:00Light Rain13°C27 mph, NW100%10000m1004hPa67%
17-Apr-2024 03:00Overcast Clouds13°C20 mph, NW100%10000m1007hPa69%
17-Apr-2024 06:00Overcast Clouds10°C9 mph, NW100%10000m1009hPa77%
17-Apr-2024 09:00Few Clouds8°C9 mph, NW14%10000m1011hPa83%
17-Apr-2024 12:00Few Clouds7°C7 mph, NW24%10000m1013hPa81%
17-Apr-2024 15:00Scattered Clouds12°C4 mph, NW38%10000m1013hPa62%
17-Apr-2024 18:00Scattered Clouds17°C2 mph, W27%10000m1011hPa42%
17-Apr-2024 21:00Scattered Clouds21°C7 mph, SW25%10000m1008hPa34%
18-Apr-2024 00:00Light Rain18°C13 mph, NE52%10000m1007hPa50%
18-Apr-2024 03:00Light Rain15°C13 mph, NE94%10000m1011hPa66%
18-Apr-2024 06:00Light Rain11°C18 mph, NE97%10000m1014hPa87%
18-Apr-2024 09:00Light Rain6°C22 mph, N100%10000m1019hPa84%
18-Apr-2024 12:00Light Rain4°C16 mph, N100%9978m1021hPa92%
18-Apr-2024 15:00Light Rain5°C16 mph, NE100%10000m1024hPa75%
18-Apr-2024 18:00Overcast Clouds6°C13 mph, NE100%10000m1025hPa57%
18-Apr-2024 21:00Overcast Clouds8°C11 mph, N100%10000m1022hPa47%
19-Apr-2024 00:00Overcast Clouds9°C9 mph, N100%10000m1022hPa40%
19-Apr-2024 03:00Overcast Clouds8°C4 mph, NE100%10000m1023hPa41%
19-Apr-2024 06:00Overcast Clouds6°C4 mph, E100%10000m1024hPa46%
19-Apr-2024 09:00Overcast Clouds5°C7 mph, E100%10000m1025hPa47%
19-Apr-2024 12:00Overcast Clouds4°C7 mph, E100%10000m1026hPa48%
19-Apr-2024 15:00Overcast Clouds6°C11 mph, E100%10000m1026hPa43%
19-Apr-2024 18:00Overcast Clouds9°C9 mph, SE100%10000m1024hPa43%
19-Apr-2024 21:00Overcast Clouds9°C9 mph, SE100%10000m1022hPa53%
20-Apr-2024 00:00Light Rain7°C11 mph, E100%10000m1024hPa68%
20-Apr-2024 03:00Moderate Rain3°C13 mph, E100%189m1027hPa95%
20-Apr-2024 06:00Light Rain3°C11 mph, N100%0m1027hPa95%
20-Apr-2024 09:00Snow3°C11 mph, E100%40m1027hPa97%
20-Apr-2024 12:00Snow2°C11 mph, E100%23m1027hPa99%